Time;durP1;ratioP1;P1;durP2;ratioP2;P2;SDS_P1;SDS_P2;PMS_P1;PMS_P2;Temp;Humidity;BMP_temperature;BMP_pressure;BME280_temperature;BME280_humidity;BME280_pressure;Samples;Min_cycle;Max_cycle;Signal;HPM_P1;HPM_P2
2021/05/06 04:27:03;;;;;;;;;;;;;;;18.53;41.15;99448.81;1783560;79;20185;-72
2021/05/06 04:37:28;;;;;;;;;;;;;;;20.29;36.78;99416.66;1765662;80;21292;-71
2021/05/06 04:40:04;;;;;;;;;;;;;;;20.64;36.07;99431.38;1757458;80;20226;-69
2021/05/06 05:06:34;;;;;;;;;;;;;;;21.65;33.69;99463.78;1687073;84;20346;-71
2021/05/06 05:09:20;;;;;;;;;;;;;;;21.69;33.63;99459.31;1703423;80;20229;-72
2021/05/06 05:20:07;;;;;;;;;;;;;;;19.25;36.69;99454.50;1755634;80;20290;-73
2021/05/06 05:28:01;;;;;;;;;;;;;;;17.47;40.37;99445.17;1758465;79;21199;-71
2021/05/06 05:30:30;;;;;;;;;;;;;;;17.31;40.85;99445.89;1768978;79;20496;-72
2021/05/06 05:33:00;;;;;;;;;;;;;;;17.28;40.78;99445.08;1739571;80;20215;-72
2021/05/06 05:35:40;;;;;;;;;;;;;;;17.34;41.46;99445.32;1764942;80;20131;-71
2021/05/06 05:41:02;;;;;;;;;;;;;;;17.38;40.79;99450.16;1764149;80;21295;-69
2021/05/06 05:56:46;;;;;;;;;;;;;;;16.59;42.71;99432.06;1775191;80;20219;-71
2021/05/06 05:59:14;;;;;;;;;;;;;;;16.45;42.43;99440.01;1775298;80;20388;-71
2021/05/06 06:01:43;;;;;;;;;;;;;;;16.49;43.12;99440.24;1768372;80;20227;-70
2021/05/06 06:04:10;;;;;;;;;;;;;;;16.69;43.04;99423.08;1776940;80;20218;-70
2021/05/06 06:06:39;;;;;;;;;;;;;;;16.99;42.82;99413.95;1776310;80;21312;-70
2021/05/06 06:09:08;;;;;;;;;;;;;;;17.42;42.05;99430.34;1773503;80;20219;-71
2021/05/06 06:11:36;;;;;;;;;;;;;;;17.76;41.26;99419.16;1775555;80;20115;-70
2021/05/06 06:14:08;;;;;;;;;;;;;;;17.86;40.43;99427.16;1716802;83;20298;-71
2021/05/06 06:16:38;;;;;;;;;;;;;;;17.83;40.37;99424.48;1714778;83;20513;-71
2021/05/06 06:19:16;;;;;;;;;;;;;;;17.74;39.85;99422.16;1818130;77;20239;-73
2021/05/06 06:21:51;;;;;;;;;;;;;;;17.41;40.26;99423.30;1808240;77;20533;-70
2021/05/06 06:24:18;;;;;;;;;;;;;;;17.11;40.90;99419.00;1800717;77;21212;-72
2021/05/06 06:26:46;;;;;;;;;;;;;;;16.78;41.62;99430.33;1801021;77;20183;-72
2021/05/06 06:29:17;;;;;;;;;;;;;;;16.48;42.16;99427.27;1799278;77;20139;-72
2021/05/06 06:31:50;;;;;;;;;;;;;;;16.23;42.15;99429.03;1802529;77;20151;-72
2021/05/06 06:34:15;;;;;;;;;;;;;;;16.02;41.93;99436.44;1800429;77;20222;-72
2021/05/06 06:36:46;;;;;;;;;;;;;;;15.87;41.83;99434.61;1802317;77;21193;-72
2021/05/06 06:39:15;;;;;;;;;;;;;;;15.75;41.39;99447.05;1797123;77;20144;-72
2021/05/06 06:41:43;;;;;;;;;;;;;;;15.66;41.51;99447.31;1797248;78;20131;-72
2021/05/06 06:44:13;;;;;;;;;;;;;;;15.57;41.54;99458.42;1797260;78;20171;-71
2021/05/06 06:46:42;;;;;;;;;;;;;;;15.48;41.69;99459.52;1797635;78;20575;-71
2021/05/06 06:49:10;;;;;;;;;;;;;;;15.41;42.01;99459.81;1796283;78;21205;-72
2021/05/06 06:51:40;;;;;;;;;;;;;;;15.34;42.36;99461.98;1795160;78;20204;-74
2021/05/06 06:54:09;;;;;;;;;;;;;;;15.32;42.85;99470.07;1795182;78;20175;-72
2021/05/06 06:56:37;;;;;;;;;;;;;;;15.30;42.78;99470.89;1792852;78;20260;-73
2021/05/06 06:59:05;;;;;;;;;;;;;;;15.28;43.23;99464.39;1764716;79;20226;-74
2021/05/06 07:01:35;;;;;;;;;;;;;;;15.23;43.09;99478.70;1798784;78;21123;-73
2021/05/06 07:04:03;;;;;;;;;;;;;;;15.19;43.14;99479.00;1797864;78;21041;-73
2021/05/06 07:06:31;;;;;;;;;;;;;;;15.15;43.87;99487.88;1799374;78;20171;-75
2021/05/06 07:08:59;;;;;;;;;;;;;;;15.13;43.40;99500.30;1767705;78;20204;-71
2021/05/06 07:11:27;;;;;;;;;;;;;;;15.09;43.55;99499.76;1800555;78;20263;-73
2021/05/06 07:13:55;;;;;;;;;;;;;;;15.06;43.92;99513.25;1801053;78;21212;-72
2021/05/06 07:16:22;;;;;;;;;;;;;;;15.03;44.28;99510.56;1803602;78;21195;-72
2021/05/06 07:18:50;;;;;;;;;;;;;;;15.01;44.85;99509.20;1800675;77;20237;-73
2021/05/06 07:21:20;;;;;;;;;;;;;;;14.97;45.69;99527.84;1794044;77;20160;-68
2021/05/06 07:23:48;;;;;;;;;;;;;;;14.94;46.17;99523.50;1794437;77;20317;-73
2021/05/06 07:26:17;;;;;;;;;;;;;;;14.88;46.69;99525.37;1795443;77;21275;-73
2021/05/06 07:28:49;;;;;;;;;;;;;;;14.84;47.36;99534.55;1794880;77;20280;-74
2021/05/06 07:31:21;;;;;;;;;;;;;;;14.83;48.60;99528.87;1794500;77;20502;-72
2021/05/06 07:33:51;;;;;;;;;;;;;;;14.83;49.49;99532.92;1794095;77;20239;-71
2021/05/06 07:36:20;;;;;;;;;;;;;;;14.87;50.36;99534.02;1792526;77;20248;-72
2021/05/06 07:38:49;;;;;;;;;;;;;;;15.00;50.93;99535.39;1791153;77;21192;-72
2021/05/06 07:41:19;;;;;;;;;;;;;;;15.27;50.97;99537.55;1794801;77;20238;-71
2021/05/06 07:43:49;;;;;;;;;;;;;;;15.59;50.03;99544.86;1789089;79;20263;-72
2021/05/06 07:46:20;;;;;;;;;;;;;;;15.87;48.51;99552.68;1794066;77;20220;-74
2021/05/06 07:48:51;;;;;;;;;;;;;;;15.94;48.01;99554.05;1793758;77;20493;-72
2021/05/06 07:51:22;;;;;;;;;;;;;;;15.87;48.35;99552.68;1795906;77;21212;-72
2021/05/06 07:53:52;;;;;;;;;;;;;;;15.74;48.96;99554.05;1792303;77;20669;-72
2021/05/06 07:56:22;;;;;;;;;;;;;;;15.58;49.49;99559.44;1790953;77;20564;-72
2021/05/06 07:58:50;;;;;;;;;;;;;;;15.44;49.89;99567.81;1792660;77;20286;-73
2021/05/06 08:01:18;;;;;;;;;;;;;;;15.36;50.38;99553.52;1794502;77;20477;-72
2021/05/06 08:03:46;;;;;;;;;;;;;;;15.33;50.81;99552.16;1793939;77;21193;-71
2021/05/06 08:06:15;;;;;;;;;;;;;;;15.31;51.00;99547.58;1791751;77;20298;-73
2021/05/06 08:08:44;;;;;;;;;;;;;;;15.32;50.92;99560.52;1792847;77;20513;-70
2021/05/06 08:11:12;;;;;;;;;;;;;;;15.35;50.66;99558.63;1791047;79;20211;-70
2021/05/06 08:13:41;;;;;;;;;;;;;;;15.35;50.49;99552.68;1788482;79;20279;-70
2021/05/06 08:16:09;;;;;;;;;;;;;;;15.39;50.99;99552.97;1793641;79;21206;-71
2021/05/06 08:18:37;;;;;;;;;;;;;;;15.48;50.79;99558.09;1768468;77;20262;-70
2021/05/06 08:21:06;;;;;;;;;;;;;;;15.52;50.73;99561.08;1741083;79;20225;-72
2021/05/06 08:23:34;;;;;;;;;;;;;;;15.54;50.80;99560.26;1737791;81;20313;-72
2021/05/06 08:26:03;;;;;;;;;;;;;;;15.62;51.33;99562.95;1737100;81;20255;-73
2021/05/06 08:28:33;;;;;;;;;;;;;;;15.74;51.31;99571.61;1740498;81;22693;-72
2021/05/06 08:31:01;;;;;;;;;;;;;;;15.88;51.27;99575.38;1740066;81;20282;-72
2021/05/06 08:33:31;;;;;;;;;;;;;;;16.08;50.63;99562.93;1738770;80;20514;-72
2021/05/06 08:36:00;;;;;;;;;;;;;;;16.26;50.34;99569.63;1739958;81;20280;-71
2021/05/06 08:38:28;;;;;;;;;;;;;;;16.41;49.65;99564.71;1741082;81;20264;-71
2021/05/06 08:44:31;;;;;;;;;;;;;;;16.52;49.46;99558.70;1741135;81;20271;-72
2021/05/06 08:50:17;;;;;;;;;;;;;;;16.51;49.19;99577.40;1742025;81;20191;-72
2021/05/06 08:56:15;;;;;;;;;;;;;;;16.25;49.94;99580.17;1738012;81;20480;-72
2021/05/06 09:02:14;;;;;;;;;;;;;;;16.03;50.88;99576.45;1743037;81;20192;-72
2021/05/06 09:08:12;;;;;;;;;;;;;;;16.09;51.18;99578.05;1742334;81;20151;-71
2021/05/06 09:14:14;;;;;;;;;;;;;;;16.59;51.42;99580.87;1742835;81;20205;-69
2021/05/06 09:23:32;;;;;;;;;;;;;;;17.14;49.48;99578.19;1775009;80;20137;-71
2021/05/06 09:29:35;;;;;;;;;;;;;;;17.05;49.86;99598.27;1772147;80;20142;-70
2021/05/06 09:35:42;;;;;;;;;;;;;;;16.89;50.37;99598.10;1769831;80;20220;-71
2021/05/06 09:41:40;;;;;;;;;;;;;;;16.60;51.02;99596.82;1770091;80;20233;-73
2021/05/06 09:47:39;;;;;;;;;;;;;;;16.31;52.18;99602.05;1769193;80;20224;-73
2021/05/06 09:53:29;;;;;;;;;;;;;;;16.08;53.46;99609.69;1770922;80;20153;-71
2021/05/06 09:59:28;;;;;;;;;;;;;;;15.93;54.61;99605.67;1672899;85;20159;-72
2021/05/06 10:02:10;;;;;;;;;;;;;;;15.84;55.18;99615.38;1831171;77;20206;-71
2021/05/06 10:04:40;;;;;;;;;;;;;;;15.69;55.67;99622.92;1799574;79;20145;-72
2021/05/06 10:07:21;;;;;;;;;;;;;;;15.60;56.55;99638.86;1799543;79;21235;-73
2021/05/06 10:09:54;;;;;;;;;;;;;;;15.51;56.91;99640.48;1803016;79;20127;-72
2021/05/06 10:12:23;;;;;;;;;;;;;;;15.42;57.64;99645.59;1792960;79;20195;-73
2021/05/06 10:14:51;;;;;;;;;;;;;;;15.30;58.11;99643.15;1768677;79;20129;-72
2021/05/06 10:17:21;;;;;;;;;;;;;;;15.23;58.77;99640.69;1791237;79;20135;-73
2021/05/06 10:19:50;;;;;;;;;;;;;;;15.17;58.52;99633.66;1799113;79;21157;-72
2021/05/06 10:22:20;;;;;;;;;;;;;;;15.15;58.87;99638.53;1784958;80;20151;-73
2021/05/06 10:24:48;;;;;;;;;;;;;;;15.14;58.99;99634.20;1778046;80;20147;-72
2021/05/06 10:27:18;;;;;;;;;;;;;;;15.14;59.05;99623.95;1785064;80;20274;-72
2021/05/06 10:29:47;;;;;;;;;;;;;;;15.17;59.12;99628.81;1788988;79;20143;-72
2021/05/06 10:32:15;;;;;;;;;;;;;;;15.23;58.95;99635.84;1798963;79;21136;-74
2021/05/06 10:34:45;;;;;;;;;;;;;;;15.26;58.62;99644.75;1799187;79;20156;-72
2021/05/06 10:37:14;;;;;;;;;;;;;;;15.30;58.69;99645.84;1767007;80;20159;-72
2021/05/06 10:39:44;;;;;;;;;;;;;;;15.34;58.75;99650.99;1789904;79;20159;-72
2021/05/06 10:42:28;;;;;;;;;;;;;;;15.31;58.66;99646.12;1803736;79;20131;-71
2021/05/06 10:44:59;;;;;;;;;;;;;;;15.33;58.62;99651.27;1801446;79;21239;-72
2021/05/06 10:47:48;;;;;;;;;;;;;;;15.31;58.69;99644.78;1796959;79;20240;-72
2021/05/06 10:50:19;;;;;;;;;;;;;;;15.34;58.73;99646.11;1801307;79;20238;-72
2021/05/06 10:52:51;;;;;;;;;;;;;;;15.40;58.69;99650.47;1799787;79;20613;-70
2021/05/06 10:55:46;;;;;;;;;;;;;;;15.42;58.57;99652.35;1794458;79;20307;-72
2021/05/06 10:58:30;;;;;;;;;;;;;;;15.45;58.71;99655.86;1824453;77;20192;-72
2021/05/06 11:01:13;;;;;;;;;;;;;;;15.39;58.80;99659.64;1799595;79;20149;-72
2021/05/06 11:03:41;;;;;;;;;;;;;;;15.38;58.99;99658.81;1795399;79;21149;-70
2021/05/06 11:06:30;;;;;;;;;;;;;;;15.40;59.32;99658.02;1802987;79;20125;-69
2021/05/06 11:08:58;;;;;;;;;;;;;;;15.44;59.57;99658.83;1707157;83;20237;-70
2021/05/06 11:11:26;;;;;;;;;;;;;;;15.44;59.72;99657.48;1681846;83;20263;-69
2021/05/06 11:14:05;;;;;;;;;;;;;;;15.50;59.99;99659.11;1821941;77;20225;-72
2021/05/06 11:16:37;;;;;;;;;;;;;;;15.48;60.43;99659.38;1802234;79;20144;-73
2021/05/06 11:19:05;;;;;;;;;;;;;;;15.52;60.77;99662.37;1803534;79;21197;-71
2021/05/06 11:21:36;;;;;;;;;;;;;;;15.58;61.08;99665.34;1798191;79;20414;-72
2021/05/06 11:24:17;;;;;;;;;;;;;;;15.64;61.08;99666.16;1802904;79;20163;-70
2021/05/06 11:29:43;;;;;;;;;;;;;;;15.75;59.98;99666.42;1801507;79;20144;-70
2021/05/06 11:32:34;;;;;;;;;;;;;;;15.80;59.72;99674.58;1803056;79;21130;-73
2021/05/06 11:35:03;;;;;;;;;;;;;;;15.81;59.70;99669.45;1801712;79;20163;-73
2021/05/06 11:37:32;;;;;;;;;;;;;;;15.86;59.86;99671.34;1800331;79;20160;-71
2021/05/06 11:40:06;;;;;;;;;;;;;;;15.88;59.77;99679.98;1802394;79;20175;-71
2021/05/06 11:42:40;;;;;;;;;;;;;;;15.89;60.17;99681.06;1803170;77;20311;-75
2021/05/06 11:45:10;;;;;;;;;;;;;;;15.88;60.21;99679.98;1801390;77;21270;-73
2021/05/06 11:47:41;;;;;;;;;;;;;;;15.86;59.84;99680.25;1803363;78;20168;-74
2021/05/06 11:50:19;;;;;;;;;;;;;;;15.82;59.95;99681.06;1798858;79;20161;-70
2021/05/06 11:52:47;;;;;;;;;;;;;;;15.79;59.91;99680.26;1756173;81;20442;-74
2021/05/06 11:55:34;;;;;;;;;;;;;;;15.78;59.80;99682.13;1744159;80;20311;-76
2021/05/06 11:58:02;;;;;;;;;;;;;;;15.74;59.32;99679.69;1745072;80;21222;-73
2021/05/06 12:00:31;;;;;;;;;;;;;;;15.64;59.67;99679.67;1729329;81;20627;-73
2021/05/06 12:03:04;;;;;;;;;;;;;;;15.57;59.43;99680.72;1726136;82;20303;-73
2021/05/06 12:05:55;;;;;;;;;;;;;;;15.53;59.30;99684.23;1727531;82;20539;-71
2021/05/06 12:08:34;;;;;;;;;;;;;;;15.50;58.88;99686.12;1721727;82;20203;-70
2021/05/06 12:11:04;;;;;;;;;;;;;;;15.40;58.41;99692.33;1722157;83;20148;-70
2021/05/06 12:13:35;;;;;;;;;;;;;;;15.34;58.47;99692.84;1722017;83;20292;-72
2021/05/06 12:16:11;;;;;;;;;;;;;;;15.29;58.49;99688.77;1719367;82;20124;-73
2021/05/06 12:18:40;;;;;;;;;;;;;;;15.24;58.25;99682.82;1716968;83;20274;-72
2021/05/06 12:21:08;;;;;;;;;;;;;;;15.19;58.01;99677.42;1719252;83;20303;-73
2021/05/06 12:23:36;;;;;;;;;;;;;;;15.19;57.89;99681.47;1720094;83;21890;-71
2021/05/06 12:26:04;;;;;;;;;;;;;;;15.23;57.67;99684.44;1693537;83;20198;-72
2021/05/06 12:28:39;;;;;;;;;;;;;;;15.26;57.44;99685.80;1684454;83;20167;-71
2021/05/06 12:31:07;;;;;;;;;;;;;;;15.29;57.80;99690.67;1718348;83;20235;-74
2021/05/06 12:33:35;;;;;;;;;;;;;;;15.32;58.43;99685.53;1711646;84;20517;-72
2021/05/06 12:36:04;;;;;;;;;;;;;;;15.36;59.16;99679.88;1739769;82;21225;-69
2021/05/06 12:38:32;;;;;;;;;;;;;;;15.39;59.36;99679.34;1740318;81;20198;-71
2021/05/06 12:41:05;;;;;;;;;;;;;;;15.39;58.98;99686.64;1739287;82;20162;-72
2021/05/06 12:43:34;;;;;;;;;;;;;;;15.40;59.02;99682.88;1740112;82;20252;-72
2021/05/06 12:46:10;;;;;;;;;;;;;;;15.42;59.42;99695.02;1736880;82;20262;-70
2021/05/06 12:48:41;;;;;;;;;;;;;;;15.44;59.53;99688.55;1629192;88;21449;-71
2021/05/06 12:51:17;;;;;;;;;;;;;;;15.48;59.41;99690.98;1827717;77;20231;-70
2021/05/06 12:53:59;;;;;;;;;;;;;;;15.40;59.67;99689.08;1833652;77;20241;-72
2021/05/06 12:56:34;;;;;;;;;;;;;;;15.36;59.78;99683.93;1829950;77;21204;-72
2021/05/06 12:59:28;;;;;;;;;;;;;;;15.36;59.53;99691.23;1833595;77;20134;-70
2021/05/06 13:05:40;;;;;;;;;;;;;;;15.35;59.29;99680.95;1761864;80;20229;-73
2021/05/06 13:08:15;;;;;;;;;;;;;;;15.41;58.87;99686.66;1817210;77;20200;-72
2021/05/06 13:10:47;;;;;;;;;;;;;;;15.34;58.63;99694.20;1830006;77;20164;-71
2021/05/06 13:13:43;;;;;;;;;;;;;;;15.32;58.54;99694.19;1832746;77;21136;-72
2021/05/06 13:16:11;;;;;;;;;;;;;;;15.24;58.21;99688.77;1834235;77;20244;-70
2021/05/06 13:18:41;;;;;;;;;;;;;;;15.16;58.18;99694.67;1830625;77;20176;-71
2021/05/06 13:21:14;;;;;;;;;;;;;;;15.12;58.83;99693.05;1835124;77;20153;-71
2021/05/06 13:23:42;;;;;;;;;;;;;;;15.14;58.88;99698.19;1830959;77;20162;-70
2021/05/06 13:26:10;;;;;;;;;;;;;;;15.16;58.76;99690.07;1832670;77;21244;-71
2021/05/06 13:28:41;;;;;;;;;;;;;;;15.18;58.38;99693.86;1835789;77;20178;-71
2021/05/06 13:31:21;;;;;;;;;;;;;;;15.18;58.18;99696.03;1834774;77;20506;-71
2021/05/06 13:33:51;;;;;;;;;;;;;;;15.19;58.03;99696.84;1835473;77;20338;-71
2021/05/06 13:36:23;;;;;;;;;;;;;;;15.19;57.63;99697.67;1831754;76;20538;-70
2021/05/06 13:39:00;;;;;;;;;;;;;;;15.26;57.59;99692.55;1829444;77;20241;-71
2021/05/06 13:41:44;;;;;;;;;;;;;;;15.19;57.67;99701.72;1818651;79;20133;-71
2021/05/06 13:44:15;;;;;;;;;;;;;;;15.19;57.84;99695.48;1804639;79;21212;-70
2021/05/06 13:46:46;;;;;;;;;;;;;;;15.20;58.06;99701.97;1818649;79;20149;-72
2021/05/06 13:49:14;;;;;;;;;;;;;;;15.24;57.97;99707.67;1811742;79;20113;-72
2021/05/06 13:51:42;;;;;;;;;;;;;;;15.24;57.71;99702.27;1818542;79;20136;-72
2021/05/06 13:54:10;;;;;;;;;;;;;;;15.23;57.59;99700.09;1779055;79;20153;-70
2021/05/06 13:56:39;;;;;;;;;;;;;;;15.23;57.59;99700.64;1785448;79;21417;-70
2021/05/06 13:59:06;;;;;;;;;;;;;;;15.23;57.89;99696.03;1800311;79;20117;-73
2021/05/06 14:01:36;;;;;;;;;;;;;;;15.26;57.71;99698.75;1801002;79;20137;-75
2021/05/06 14:04:05;;;;;;;;;;;;;;;15.27;57.58;99695.50;1796895;79;20220;-74
2021/05/06 14:06:34;;;;;;;;;;;;;;;15.25;57.26;99697.13;1792378;79;20156;-70
2021/05/06 14:09:02;;;;;;;;;;;;;;;15.20;56.82;99706.56;1789226;79;21197;-72
2021/05/06 14:11:31;;;;;;;;;;;;;;;15.16;56.67;99699.52;1790736;79;20211;-70
2021/05/06 14:14:00;;;;;;;;;;;;;;;15.16;56.60;99703.56;1791969;79;20224;-69
2021/05/06 14:16:28;;;;;;;;;;;;;;;15.16;56.71;99703.56;1751847;79;20301;-70
2021/05/06 14:18:58;;;;;;;;;;;;;;;15.19;56.91;99699.02;1788262;79;20236;-70
2021/05/06 14:21:26;;;;;;;;;;;;;;;15.23;56.65;99689.84;1700627;83;21214;-70
2021/05/06 14:23:54;;;;;;;;;;;;;;;15.27;56.26;99695.50;1696063;83;20603;-70
2021/05/06 14:26:22;;;;;;;;;;;;;;;15.32;56.22;99691.48;1681727;83;20346;-71
2021/05/06 14:28:50;;;;;;;;;;;;;;;15.38;56.44;99697.97;1700984;83;20134;-68
2021/05/06 14:31:18;;;;;;;;;;;;;;;15.45;56.37;99699.08;1696319;83;20230;-68
2021/05/06 14:33:46;;;;;;;;;;;;;;;15.55;55.93;99691.55;1702325;83;22166;-71
2021/05/06 14:36:14;;;;;;;;;;;;;;;15.63;55.48;99696.95;1708676;83;20259;-72
2021/05/06 14:38:42;;;;;;;;;;;;;;;15.68;54.97;99699.13;1699989;80;20274;-71
2021/05/06 14:41:11;;;;;;;;;;;;;;;15.74;54.68;99703.45;1751840;82;20246;-70
2021/05/06 14:43:39;;;;;;;;;;;;;;;15.80;54.66;99694.02;1756693;80;20184;-70
2021/05/06 14:46:07;;;;;;;;;;;;;;;15.89;53.66;99701.88;1751939;82;21204;-70
2021/05/06 14:48:35;;;;;;;;;;;;;;;15.97;52.88;99689.72;1749083;82;20227;-71
2021/05/06 14:51:03;;;;;;;;;;;;;;;16.02;52.09;99689.18;1751770;82;20112;-70
2021/05/06 14:53:31;;;;;;;;;;;;;;;16.06;51.73;99679.97;1748544;82;20254;-69
2021/05/06 14:55:59;;;;;;;;;;;;;;;16.09;51.99;99673.50;1749724;82;20645;-71
2021/05/06 14:58:29;;;;;;;;;;;;;;;16.14;51.18;99669.98;1750889;82;21200;-69
2021/05/06 15:00:57;;;;;;;;;;;;;;;16.16;49.80;99667.80;1748243;82;20265;-70
2021/05/06 15:03:27;;;;;;;;;;;;;;;16.17;48.78;99668.63;1749229;82;20505;-71
2021/05/06 15:05:56;;;;;;;;;;;;;;;16.17;47.41;99673.48;1751156;82;20247;-71
2021/05/06 15:08:24;;;;;;;;;;;;;;;16.14;48.09;99675.38;1751032;82;20211;-72
2021/05/06 15:10:52;;;;;;;;;;;;;;;16.13;47.95;99677.81;1751428;82;21260;-73
2021/05/06 15:13:20;;;;;;;;;;;;;;;16.10;48.03;99673.75;1747974;82;20190;-70
2021/05/06 15:15:47;;;;;;;;;;;;;;;16.10;47.97;99682.41;1724129;82;20166;-71
2021/05/06 15:18:15;;;;;;;;;;;;;;;16.10;47.92;99686.47;1721572;82;20280;-74
2021/05/06 15:20:43;;;;;;;;;;;;;;;16.09;47.99;99683.48;1750040;82;20218;-71
2021/05/06 15:23:12;;;;;;;;;;;;;;;16.09;46.88;99684.83;1747940;81;21140;-70
2021/05/06 15:25:39;;;;;;;;;;;;;;;16.06;46.32;99682.67;1750927;82;20140;-70
2021/05/06 15:28:07;;;;;;;;;;;;;;;16.01;45.80;99674.03;1722181;82;20238;-70
2021/05/06 15:30:35;;;;;;;;;;;;;;;15.93;45.76;99686.75;1751533;82;20509;-73
2021/05/06 15:33:04;;;;;;;;;;;;;;;15.90;45.92;99696.20;1750069;82;20151;-72
2021/05/06 15:35:35;;;;;;;;;;;;;;;15.89;45.17;99691.88;1751319;82;21125;-71
2021/05/06 15:38:04;;;;;;;;;;;;;;;15.88;45.18;99692.94;1754116;80;20207;-71
2021/05/06 15:40:34;;;;;;;;;;;;;;;15.88;45.19;99697.55;1760238;81;20307;-72
2021/05/06 15:43:04;;;;;;;;;;;;;;;15.88;44.99;99699.70;1761140;81;20586;-70
2021/05/06 15:45:31;;;;;;;;;;;;;;;15.87;44.38;99694.56;1760835;81;20290;-70
2021/05/06 15:48:00;;;;;;;;;;;;;;;15.82;43.82;99699.43;1761124;81;21194;-72
2021/05/06 15:50:28;;;;;;;;;;;;;;;15.78;44.27;99696.98;1762090;81;20132;-70
2021/05/06 15:52:56;;;;;;;;;;;;;;;15.75;44.33;99707.78;1759086;81;20196;-73
2021/05/06 15:55:24;;;;;;;;;;;;;;;15.74;44.17;99708.05;1757240;81;20140;-75
2021/05/06 15:57:52;;;;;;;;;;;;;;;15.70;43.79;99714.52;1760721;81;20271;-72
2021/05/06 16:00:23;;;;;;;;;;;;;;;15.66;43.36;99716.67;1723433;81;21379;-72
2021/05/06 16:02:52;;;;;;;;;;;;;;;15.64;43.74;99719.65;1761595;81;20184;-74
2021/05/06 16:11:05;;;;;;;;;;;;;;;15.60;43.69;99721.25;1798973;79;20170;-69
2021/05/06 16:17:04;;;;;;;;;;;;;;;15.59;44.32;99724.51;1801985;79;20159;-70
2021/05/06 16:23:03;;;;;;;;;;;;;;;15.52;43.93;99722.59;1801708;79;20219;-71
2021/05/06 16:29:02;;;;;;;;;;;;;;;15.41;44.72;99726.34;1801451;79;20135;-72
2021/05/06 16:35:05;;;;;;;;;;;;;;;15.36;45.09;99727.69;1801736;79;20180;-71
2021/05/06 16:41:06;;;;;;;;;;;;;;;15.30;45.45;99730.91;1801540;79;20190;-73
2021/05/06 16:47:03;;;;;;;;;;;;;;;15.24;46.12;99733.31;1797957;79;20262;-70
2021/05/06 16:53:04;;;;;;;;;;;;;;;15.14;45.89;99744.08;1800737;79;20561;-71
2021/05/06 16:58:50;;;;;;;;;;;;;;;15.00;45.95;99743.20;1801427;79;20581;-72
2021/05/06 17:04:49;;;;;;;;;;;;;;;14.88;46.64;99742.06;1800377;79;20133;-75
2021/05/06 17:10:48;;;;;;;;;;;;;;;14.74;46.91;99742.77;1788772;79;20139;-73
2021/05/06 17:16:47;;;;;;;;;;;;;;;14.61;47.09;99748.08;1791360;79;20156;-75
2021/05/06 17:22:45;;;;;;;;;;;;;;;14.48;47.26;99751.48;1789699;79;20498;-70
2021/05/06 17:28:32;;;;;;;;;;;;;;;14.36;47.60;99748.97;1788935;79;20135;-70
2021/05/06 17:34:31;;;;;;;;;;;;;;;14.25;47.88;99745.11;1790510;79;20221;-69
2021/05/06 17:40:31;;;;;;;;;;;;;;;14.15;48.20;99745.85;1787735;79;20236;-72
2021/05/06 17:46:30;;;;;;;;;;;;;;;14.03;48.95;99740.63;1790216;79;20135;-70
2021/05/06 17:52:29;;;;;;;;;;;;;;;13.92;49.61;99748.33;1790127;79;20689;-71
2021/05/06 17:58:28;;;;;;;;;;;;;;;13.81;50.21;99749.58;1789264;79;20169;-70
2021/05/06 18:04:27;;;;;;;;;;;;;;;13.70;50.95;99755.13;1790391;79;20134;-72
2021/05/06 18:10:28;;;;;;;;;;;;;;;13.57;51.88;99761.71;1784513;78;20870;-72
2021/05/06 18:16:29;;;;;;;;;;;;;;;13.46;52.27;99775.60;1776586;80;20489;-72
2021/05/06 18:22:30;;;;;;;;;;;;;;;13.34;52.42;99777.08;1720408;82;20155;-74
2021/05/06 18:28:28;;;;;;;;;;;;;;;13.25;52.97;99782.56;1719508;82;20198;-73
2021/05/06 18:34:27;;;;;;;;;;;;;;;13.13;53.26;99792.94;1708953;83;20171;-72
2021/05/06 18:40:29;;;;;;;;;;;;;;;13.03;53.42;99795.48;1712932;83;20527;-70
2021/05/06 18:46:27;;;;;;;;;;;;;;;12.93;53.64;99802.87;1780518;79;20245;-71
2021/05/06 18:52:26;;;;;;;;;;;;;;;12.84;53.73;99804.36;1778644;80;20518;-70
2021/05/06 18:58:16;;;;;;;;;;;;;;;12.76;53.66;99813.67;1779568;80;20172;-70
2021/05/06 19:04:17;;;;;;;;;;;;;;;12.71;53.74;99816.27;1777918;80;20186;-70
2021/05/06 19:10:15;;;;;;;;;;;;;;;12.62;52.92;99794.35;1778904;80;20184;-70
2021/05/06 19:16:14;;;;;;;;;;;;;;;12.59;52.48;99791.36;1776814;80;20187;-71
2021/05/06 19:22:12;;;;;;;;;;;;;;;12.53;52.92;99793.66;1775842;80;20150;-71
2021/05/06 19:28:10;;;;;;;;;;;;;;;12.47;53.42;99801.36;1777112;80;21216;-72
2021/05/06 19:34:08;;;;;;;;;;;;;;;12.37;53.74;99804.17;1777501;80;20137;-70
2021/05/06 19:40:08;;;;;;;;;;;;;;;12.29;53.82;99815.31;1776627;80;20264;-72
2021/05/06 19:46:19;;;;;;;;;;;;;;;12.25;53.33;99823.59;1773348;80;20159;-72
2021/05/06 19:52:14;;;;;;;;;;;;;;;12.29;53.08;99837.35;1775858;80;20162;-70
2021/05/06 19:58:13;;;;;;;;;;;;;;;12.26;53.31;99826.05;1781375;79;20197;-71
2021/05/06 20:04:11;;;;;;;;;;;;;;;12.13;53.53;99824.17;1779363;79;20187;-71
2021/05/06 20:10:12;;;;;;;;;;;;;;;11.99;53.59;99824.47;1782788;79;20187;-72
2021/05/06 20:16:11;;;;;;;;;;;;;;;11.89;54.20;99835.80;1782842;79;20129;-72
2021/05/06 20:18:40;;;;;;;;;;;;;;;11.84;54.53;99842.42;1749706;81;20283;-71
2021/05/06 20:23:51;;;;;;;;;;;;;;;11.73;54.44;99840.59;1781646;79;20278;-70
2021/05/06 20:26:19;;;;;;;;;;;;;;;11.70;54.92;99846.44;1762177;79;21263;-66
2021/05/06 20:28:47;;;;;;;;;;;;;;;11.65;55.20;99847.69;1781679;79;20239;-68
2021/05/06 20:31:15;;;;;;;;;;;;;;;11.59;55.17;99856.16;1776557;79;20220;-67
2021/05/06 20:33:43;;;;;;;;;;;;;;;11.53;55.20;99863.83;1775807;79;20279;-68
2021/05/06 20:36:11;;;;;;;;;;;;;;;11.47;55.28;99860.22;1774794;79;20249;-70
2021/05/06 20:38:39;;;;;;;;;;;;;;;11.43;55.43;99872.47;1775101;80;21275;-71
2021/05/06 20:41:07;;;;;;;;;;;;;;;11.39;55.62;99876.16;1776192;80;20464;-70
2021/05/06 20:43:41;;;;;;;;;;;;;;;11.36;55.65;99877.95;1770088;80;20223;-70
2021/05/06 20:46:05;;;;;;;;;;;;;;;11.34;55.79;99875.23;1776788;79;20601;-71
2021/05/06 20:48:33;;;;;;;;;;;;;;;11.29;55.98;99881.30;1779292;79;20192;-68
2021/05/06 20:51:01;;;;;;;;;;;;;;;11.23;56.21;99886.25;1758784;80;21197;-69
2021/05/06 20:53:29;;;;;;;;;;;;;;;11.19;56.48;99891.28;1782030;80;20225;-68
2021/05/06 20:55:57;;;;;;;;;;;;;;;11.16;56.50;99892.25;1776534;80;20489;-68
2021/05/06 20:58:24;;;;;;;;;;;;;;;11.13;56.67;99894.06;1782169;79;20296;-67
2021/05/06 21:00:52;;;;;;;;;;;;;;;11.09;56.77;99894.26;1783853;79;20225;-69
2021/05/06 21:03:20;;;;;;;;;;;;;;;11.05;56.91;99898.72;1764170;80;21190;-67
2021/05/06 21:05:48;;;;;;;;;;;;;;;11.00;57.02;99901.30;1778387;80;20157;-68
2021/05/06 21:08:16;;;;;;;;;;;;;;;10.94;57.13;99896.87;1777160;80;20221;-68
2021/05/06 21:10:46;;;;;;;;;;;;;;;10.90;57.29;99910.97;1778634;80;20223;-68
2021/05/06 21:13:15;;;;;;;;;;;;;;;10.86;57.47;99916.80;1774950;79;20222;-68
2021/05/06 21:15:42;;;;;;;;;;;;;;;10.82;57.63;99912.94;1775629;80;21937;-70
2021/05/06 21:18:10;;;;;;;;;;;;;;;10.79;57.64;99925.98;1737947;80;20221;-69
2021/05/06 21:20:38;;;;;;;;;;;;;;;10.74;57.79;99923.19;1777294;80;20130;-70
2021/05/06 21:23:06;;;;;;;;;;;;;;;10.68;57.92;99919.02;1775934;80;20217;-70
2021/05/06 21:25:36;;;;;;;;;;;;;;;10.65;58.06;99921.35;1777097;80;20274;-69
2021/05/06 21:28:04;;;;;;;;;;;;;;;10.62;58.19;99923.16;1773881;80;21179;-68
2021/05/06 21:30:32;;;;;;;;;;;;;;;10.58;58.30;99914.73;1775783;80;20185;-70
2021/05/06 21:33:02;;;;;;;;;;;;;;;10.56;58.27;99903.44;1761022;80;20490;-69
2021/05/06 21:35:30;;;;;;;;;;;;;;;10.52;58.27;99904.94;1776308;80;20263;-68
2021/05/06 21:37:58;;;;;;;;;;;;;;;10.48;58.26;99907.27;1773073;80;20136;-67
2021/05/06 21:40:26;;;;;;;;;;;;;;;10.47;58.42;99915.55;1757012;79;21377;-68
2021/05/06 21:42:55;;;;;;;;;;;;;;;10.45;58.47;99914.94;1774665;80;20110;-69
2021/05/06 21:45:25;;;;;;;;;;;;;;;10.41;58.52;99915.09;1777340;80;20278;-67
2021/05/06 21:47:53;;;;;;;;;;;;;;;10.40;58.67;99916.16;1757227;80;20118;-68
2021/05/06 21:50:21;;;;;;;;;;;;;;;10.36;58.59;99913.09;1775675;80;20221;-68
2021/05/06 21:52:49;;;;;;;;;;;;;;;10.33;58.51;99907.69;1770397;80;22680;-69
2021/05/06 21:55:17;;;;;;;;;;;;;;;10.31;58.54;99908.92;1779929;80;20149;-68
2021/05/06 21:57:45;;;;;;;;;;;;;;;10.29;58.67;99906.98;1777914;79;20149;-65